• Join FlightAware (Why Join?)
  • Login
  • US Flag 
12:13PM EDT


 

Airport Tracker/Info


-or-


 

Live Flight TrackerFlight Track Log ✈ N34996 ✈ 08-Jun-2013 ✈ KCXO - KLBX

Flight Track Log - Related Links

Times and Time Zones

All times are in EDT time to prevent confusion due to time zone crossing. See the N34996 flight status page for this flight to view local times or setup timezone preferences in your user account.

Time Position Orientation Groundspeed Altitude Reporting Facility
EDT Latitude Longitude Course Direction KTS MPH feet Rate Location/Type
03:59PM 30.3525 -95.4147 142° Southeast 63 72 200  Level Houston Center
04:00PM 30.3386 -95.4019 142° Southeast 74 85 600 420 Climbing Houston Center
04:01PM 30.3272 -95.4153 225° Southwest 88 101 1,100 480 Climbing Houston Center
04:01PM 30.3258 -95.4269 262° West 82 94 1,300 480 Climbing Houston Center
04:02PM 30.3258 -95.4447 270° West 87 100 1,600 480 Climbing Houston Center
04:02PM 30.3250 -95.4536 264° West 83 96 1,800 360 Climbing Houston Center
04:03PM 30.3222 -95.4764 262° West 98 113 2,000 360 Climbing Houston Center
04:03PM 30.3225 -95.4836 273° West 88 101 2,200 240 Climbing Houston Center
04:04PM 30.3186 -95.5061 259° West 90 104 2,300 360 Climbing Houston Center
04:04PM 30.3181 -95.5114 263° West 89 102 2,600 480 Climbing Houston Center
04:05PM 30.3075 -95.5364 244° Southwest 87 100 3,000 240 Climbing Houston Center
04:06PM 30.2981 -95.5569 242° Southwest 96 110 3,000 60 Level Houston Center
04:06PM 30.2958 -95.5631 247° West 88 101 3,100 -120 Climbing Houston Center
04:07PM 30.2775 -95.5836 224° Southwest 110 127 2,900  Descending Houston Center
04:07PM 30.2736 -95.5864 212° Southwest 101 116 3,100 60 Climbing Houston Center
04:08PM 30.2519 -95.6033 214° Southwest 106 122 3,000  Descending Houston Center
04:08PM 30.2436 -95.6117 221° Southwest 109 125 3,100  Climbing Houston Center
04:09PM 30.2267 -95.6258 216° Southwest 111 128 3,000  Descending Houston Center
04:09PM 30.2197 -95.6333 223° Southwest 109 125 3,100  Climbing Houston Center
04:10PM 30.1931 -95.6561 216° Southwest 115 132 3,000 -120 Descending Houston Center
04:11PM 30.1783 -95.6725 224° Southwest 110 127 3,000 60 Level Houston Center
04:11PM 30.1694 -95.6803 217° Southwest 115 132 3,100  Climbing Houston Center
04:12PM 30.1511 -95.6975 219° Southwest 118 136 3,000  Descending Houston Center
04:12PM 30.1447 -95.7031 217° Southwest 115 132 3,100  Climbing Houston Center
04:13PM 30.1278 -95.7194 220° Southwest 109 125 3,000  Descending Houston Center
04:13PM 30.1208 -95.7244 212° Southwest 113 130 3,100  Climbing Houston Center
04:14PM 30.0994 -95.7300 193° South 108 124 3,000  Descending Houston Center
04:14PM 30.0853 -95.7325 189° South 110 127 3,100  Climbing Houston Center
04:15PM 30.0683 -95.7361 190° South 118 136 3,000  Descending Houston Center
04:15PM 30.0525 -95.7372 183° South 115 132 3,100  Climbing Houston Center
04:16PM 30.0331 -95.7403 188° South 121 139 3,000  Descending Houston Center
04:16PM 30.0194 -95.7400 179° South 118 136 3,100  Climbing Houston Center
04:17PM 30.0000 -95.7442 191° South 111 128 3,000  Descending Houston Center
04:18PM 29.9878 -95.7431 175° South 115 132 3,100  Climbing Houston Center
04:18PM 29.9686 -95.7456 186° South 113 130 3,000  Descending Houston Center
04:19PM 29.9567 -95.7464 183° South 114 131 3,100  Climbing Houston Center
04:19PM 29.9372 -95.7492 187° South 105 121 3,000  Descending Houston Center
04:20PM 29.9278 -95.7506 187° South 108 124 3,100  Climbing Houston Center
04:20PM 29.9083 -95.7525 185° South 106 122 3,000  Descending Houston Center
04:21PM 29.8986 -95.7542 188° South 106 122 3,100  Climbing Houston Center
04:21PM 29.8792 -95.7558 184° South 102 117 3,000  Descending Houston Center
04:22PM 29.8636 -95.7589 190° South 105 121 3,100  Climbing Houston Center
04:22PM 29.8481 -95.7594 182° South 111 128 3,000  Descending Houston Center
04:23PM 29.8325 -95.7619 188° South 110 127 3,100  Climbing Houston Center
04:23PM 29.8147 -95.7633 184° South 114 131 3,000  Descending Houston Center
04:24PM 29.8011 -95.7658 189° South 113 130 3,100  Climbing Houston Center
04:24PM 29.7839 -95.7694 190° South 115 132 3,000  Descending Houston Center
04:25PM 29.7697 -95.7714 187° South 114 131 3,100  Climbing Houston Center
04:25PM 29.7528 -95.7731 185° South 112 129 3,000  Descending Houston Center
04:26PM 29.7386 -95.7764 192° South 113 130 3,100  Climbing Houston Center
04:26PM 29.7197 -95.7792 187° South 117 135 3,000  Descending Houston Center
04:27PM 29.7067 -95.7814 188° South 115 132 3,100  Climbing Houston Center
04:27PM 29.6883 -95.7806 178° South 112 129 3,000  Descending Houston Center
04:28PM 29.6781 -95.7739 151° Southeast 111 128 3,100  Climbing Houston Center
04:28PM 29.6617 -95.7644 153° Southeast 107 123 3,000  Descending Houston Center
04:29PM 29.6458 -95.7550 153° Southeast 108 124 3,100  Climbing Houston Center
04:29PM 29.6328 -95.7483 156° South 110 127 3,000  Descending Houston Center
04:30PM 29.6186 -95.7403 154° Southeast 108 124 3,100  Climbing Houston Center
04:30PM 29.6042 -95.7325 155° Southeast 113 130 3,000  Descending Houston Center
04:31PM 29.5900 -95.7244 154° Southeast 112 129 3,100  Climbing Houston Center
04:31PM 29.5775 -95.7164 151° Southeast 107 123 3,000  Descending Houston Center
04:32PM 29.5636 -95.7100 158° South 108 124 3,100  Climbing Houston Center
04:32PM 29.5511 -95.7028 153° Southeast 103 119 3,000  Descending Houston Center
04:33PM 29.5386 -95.6964 156° South 102 117 3,100  Climbing Houston Center
04:33PM 29.5247 -95.6889 155° Southeast 97 112 3,000  Descending Houston Center
04:34PM 29.5136 -95.6831 155° Southeast 100 115 3,100  Climbing Houston Center
04:34PM 29.5003 -95.6750 152° Southeast 103 119 3,000  Descending Houston Center
04:35PM 29.4825 -95.6656 155° Southeast 103 119 3,100  Climbing Houston Center
04:35PM 29.4717 -95.6592 153° Southeast 107 123 3,000  Descending Houston Center
04:36PM 29.4550 -95.6506 156° South 107 123 3,100  Climbing Houston Center
04:36PM 29.4433 -95.6458 161° South 110 127 3,000 -600 Descending Houston Center
04:37PM 29.4267 -95.6358 152° Southeast 111 128 2,500 -900 Descending Houston Center
04:37PM 29.4144 -95.6300 157° South 114 131 2,100 -420 Descending Houston Center
04:38PM 29.4006 -95.6214 152° Southeast 107 123 2,100 -120 Level Houston Center
04:38PM 29.3922 -95.6158 150° Southeast 96 110 2,000  Descending Houston Center
04:39PM 29.3778 -95.6089 157° South 96 110 2,100  Climbing Houston Center
04:39PM 29.3681 -95.6042 157° South 99 114 2,000  Descending Houston Center
04:40PM 29.3531 -95.5950 152° Southeast 97 112 2,100  Climbing Houston Center
04:40PM 29.3394 -95.5883 157° South 100 115 2,000  Descending Houston Center
04:41PM 29.3244 -95.5742 141° Southeast 103 119 2,100 -120 Climbing Houston Center
04:41PM 29.3225 -95.5642 103° East 103 119 1,900  Descending Houston Center
04:42PM 29.3156 -95.5400 108° East 108 124 2,100 60 Climbing Houston Center
04:42PM 29.3111 -95.5319 122° Southeast 109 125 2,000  Descending Houston Center
04:43PM 29.3028 -95.5078 112° Southeast 111 128 2,100  Climbing Houston Center
04:44PM 29.2997 -95.4997 114° Southeast 108 124 2,000 -120 Descending Houston Center
04:44PM 29.2847 -95.4858 141° Southeast 105 121 2,000  Level Houston Center
04:45PM 29.2750 -95.4811 157° South 101 116 2,000 60 Level Houston Center
04:45PM 29.2600 -95.4703 148° Southeast 102 117 2,100 -120 Climbing Houston Center
04:46PM 29.2506 -95.4647 153° Southeast 103 119 1,900 -120 Descending Houston Center
04:46PM 29.2306 -95.4489 145° Southeast 103 119 2,000 120 Climbing Houston Center